This is the latest recevied weather packets stored in our database for station/object N5SOR-1. If no packets are shown the sender has not sent any weather packets the latest 10 day(s).
| Time | Temp. | Humidity | Pressure | Rain* | Wind** | Luminosity | Snow |
|---|---|---|---|---|---|---|---|
| 1777953079 | 22.78° C | 50% | 1008.2 hPa | 0 mm | - | 0 W/m² | - |
| 1777952419 | 22.78° C | 49% | 1008.2 hPa | 0 mm | - | 0 W/m² | - |
| 1777951758 | 23.33° C | 47% | 1008.1 hPa | 0 mm | - | 0 W/m² | - |
| 1777951097 | 23.89° C | 43% | 1008 hPa | 0 mm | - | 0 W/m² | - |
| 1777950437 | 25° C | 34% | 1008.1 hPa | 0 mm | - | 0 W/m² | - |
| 1777949776 | 26.11° C | 21% | 1008.2 hPa | 0 mm | - | 0 W/m² | - |
| 1777949115 | 26.11° C | 23% | 1008.1 hPa | 0 mm | - | 0 W/m² | - |
| 1777948455 | 26.67° C | 22% | 1007.9 hPa | 0 mm | - | 0 W/m² | - |
| 1777947794 | 26.67° C | 24% | 1007.7 hPa | 0 mm | - | 0 W/m² | - |
| 1777947134 | 27.22° C | 26% | 1007.6 hPa | 0 mm | - | 0 W/m² | - |
| 1777946473 | 27.22° C | 25% | 1007.5 hPa | 0 mm | - | 0 W/m² | - |
| 1777945812 | 26.11° C | 31% | 1007.4 hPa | 0 mm | - | 0 W/m² | - |
| 1777945152 | 25.56° C | 40% | 1007.2 hPa | 0 mm | - | 0 W/m² | - |
| 1777944491 | 26.11° C | 40% | 1007.3 hPa | 0 mm | - | 0 W/m² | - |
| 1777943830 | 26.67° C | 38% | 1007.3 hPa | 0 mm | - | 7 W/m² | - |
| 1777943170 | 27.22° C | 36% | 1007.4 hPa | 0 mm | - | 19 W/m² | - |
| 1777942509 | 27.22° C | 38% | 1007.4 hPa | 0 mm | - | 30 W/m² | - |
| 1777941849 | 27.22° C | 38% | 1007.4 hPa | 0 mm | - | 47 W/m² | - |
| 1777941188 | 27.22° C | 37% | 1007.6 hPa | 0 mm | - | 54 W/m² | - |
| 1777940527 | 28.33° C | 33% | 1007.6 hPa | 0 mm | - | 65 W/m² | - |
| 1777939867 | 28.33° C | 28% | 1007.5 hPa | 0 mm | - | 102 W/m² | - |
| 1777939206 | 28.89° C | 27% | 1007.8 hPa | 0 mm | - | 120 W/m² | - |
| 1777938545 | 29.44° C | 25% | 1007.9 hPa | 0 mm | - | 130 W/m² | - |
| 1777937885 | 29.44° C | 25% | 1008 hPa | 0 mm | - | 186 W/m² | - |
| 1777937224 | 29.44° C | 24% | 1007.9 hPa | 0 mm | - | 165 W/m² | - |
* Rain latest hour (hover to see other rain measurements)
** Current wind speed in m/s (hover to see current wind gust speed)